Latest Weather Observations for Renmark Airport

IDS60801

Issued at 6:01 pm CDT Friday 12 February 2016 (issued every 30 minutes, with the page automatically refreshed every 10 minutes)

About weather observations | Map of weather stations | Latest weather observations for SA | Other Formats
Station Details ID: 024048 Name: RENMARK AERO Lat: -34.20 Lon: 140.68 Height: 31.5 m
Data from the previous 72 hours. | See also: Recent months at Renmark Airport
Date/Time
CDT
Temp
°C
App
Temp
°C
Dew
Point
Rel
Hum
%
Delta-T
°C
Wind Press
QNH
hPa
Press
MSL
hPa
Rain
since 9 am
mm
Dir
 
Spd
km/h
Gust
km/h
Spd
kts
Gust
kts
12/06:00pm 36.3 31.4 -0.2 10 18.2 SW 15 24 8 13 1009.4 1009.3 0.0
12/05:30pm 36.8 31.2 0.2 10 18.4 WSW 19 30 10 16 1009.5 1009.4 0.0
12/05:00pm 36.9 31.0 -1.1 9 18.7 SW 20 37 11 20 1009.6 1009.5 0.0
12/04:30pm 36.9 30.0 -6.5 6 19.6 SW 22 33 12 18 1009.6 1009.5 0.0
12/04:00pm 36.5 30.3 0.0 10 18.2 WSW 22 35 12 19 1009.9 1009.8 0.0
12/03:30pm 35.9 30.8 0.9 11 17.7 SSE 17 28 9 15 1010.2 1010.1 0.0
12/03:00pm 35.9 32.2 4.2 14 16.9 SSE 13 22 7 12 1010.7 1010.6 0.0
12/02:30pm 34.8 31.1 4.4 15 16.1 S 13 20 7 11 1011.2 1011.1 0.0
12/02:00pm 35.1 32.2 4.6 15 16.2 SSE 9 15 5 8 1011.6 1011.5 0.0
12/01:30pm 34.0 30.7 4.6 16 15.6 E 11 22 6 12 1012.3 1012.2 0.0
12/01:00pm 33.1 30.6 4.8 17 15.0 SE 7 17 4 9 1012.7 1012.6 0.0
12/12:30pm 31.9 28.8 5.4 19 14.0 ENE 11 15 6 8 1013.2 1013.1 0.0
12/12:00pm 30.5 30.1 8.3 25 12.2 CALM 0 0 0 0 1013.5 1013.4 0.0
12/11:30am 28.9 27.6 9.1 29 11.0 SE 6 9 3 5 1013.9 1013.8 0.0
12/11:00am 28.0 27.2 9.8 32 10.2 NW 4 9 2 5 1014.3 1014.2 0.0
12/10:30am 26.4 24.9 10.5 37 8.9 ESE 9 15 5 8 1014.4 1014.3 0.0
12/10:00am 24.7 22.8 10.6 41 7.9 ENE 11 19 6 10 1014.5 1014.4 0.0
12/09:30am 24.2 21.6 10.8 43 7.5 SE 15 20 8 11 1014.6 1014.5 0.0
12/09:00am 22.2 18.8 10.7 48 6.3 SE 19 26 10 14 1014.7 1014.6 0.0
12/08:30am 20.9 18.5 11.3 54 5.3 SSE 15 22 8 12 1014.7 1014.6 0.0
12/08:00am 19.5 17.6 11.8 61 4.3 SSE 13 20 7 11 1014.7 1014.6 0.0
12/07:30am 18.2 16.4 12.0 67 3.4 SSW 13 19 7 10 1014.7 1014.6 0.0
12/07:00am 17.2 15.7 11.9 71 2.9 SSW 11 15 6 8 1014.2 1014.1 0.0
12/06:30am 16.8 15.6 11.7 72 2.8 SSW 9 15 5 8 1013.9 1013.8 0.0
12/06:00am 17.2 16.1 11.9 71 2.9 SSW 9 13 5 7 1013.5 1013.4 0.0
12/05:30am 17.2 16.5 11.9 71 2.9 SSW 7 11 4 6 1013.2 1013.1 0.0
12/05:00am 17.2 16.4 11.7 70 3.0 SW 7 9 4 5 1013.0 1012.9 0.0
12/04:30am 17.6 16.4 11.6 68 3.3 WSW 9 11 5 6 1012.9 1012.8 0.0
12/04:00am 18.7 17.6 11.8 64 3.8 WSW 9 13 5 7 1012.9 1012.8 0.0
12/03:30am 19.7 17.9 12.0 61 4.3 SW 13 19 7 10 1013.0 1012.9 0.0
12/03:00am 20.3 17.7 12.0 59 4.6 SSW 17 24 9 13 1013.1 1013.0 0.0
12/02:30am 20.4 17.8 12.1 59 4.6 SSW 17 26 9 14 1013.1 1013.0 0.0
12/02:00am 20.8 17.8 12.0 57 4.9 S 19 24 10 13 1013.2 1013.1 0.0
12/01:30am 21.3 18.1 11.9 55 5.3 S 20 30 11 16 1013.6 1013.5 0.0
12/01:00am 21.8 18.8 12.1 54 5.5 SSW 19 24 10 13 1013.9 1013.8 0.0
12/12:30am 22.3 19.7 12.0 52 5.8 S 17 26 9 14 1014.0 1013.9 0.0
12/12:00am 22.9 19.8 11.6 49 6.3 SSW 19 32 10 17 1014.0 1013.9 0.0
 
Date/Time
CDT
Temp
°C
App
Temp
°C
Dew
Point
Rel
Hum
%
Delta-T
°C
Wind Press
QNH
hPa
Press
MSL
hPa
Rain
since 9 am
mm
Dir
 
Spd
km/h
Gust
km/h
Spd
kts
Gust
kts
11/11:30pm 23.7 20.0 11.4 46 6.9 SSW 22 32 12 17 1013.8 1013.7 0.0
11/11:00pm 24.4 20.8 11.7 45 7.2 SSW 22 32 12 17 1013.6 1013.5 0.0
11/10:30pm 25.5 21.2 12.0 43 7.7 SSW 26 35 14 19 1013.7 1013.6 0.0
11/10:00pm 26.8 21.9 11.3 38 8.8 SSW 28 35 15 19 1013.4 1013.3 0.0
11/09:30pm 28.6 23.8 7.2 26 11.5 SSW 22 33 12 18 1012.9 1012.8 0.0
11/09:00pm 29.5 25.3 1.9 17 13.6 SSW 13 17 7 9 1012.4 1012.3 0.0
11/08:30pm 30.7 26.2 2.0 16 14.3 SSW 15 22 8 12 1011.9 1011.8 0.0
11/08:00pm 32.0 27.1 2.1 15 15.0 SSW 17 20 9 11 1011.5 1011.4 0.0
11/07:30pm 33.5 28.7 2.4 14 15.8 SSW 17 20 9 11 1011.3 1011.2 0.0
11/07:00pm 34.4 29.3 0.9 12 16.7 SSW 17 24 9 13 1011.2 1011.1 0.0
11/06:30pm 34.4 29.5 -0.3 11 17.0 SSW 15 20 8 11 1010.9 1010.8 0.0
11/06:00pm 35.7 30.6 -2.0 9 18.1 SSE 15 24 8 13 1010.9 1010.8 0.0
11/05:30pm 35.5 30.6 -0.8 10 17.8 SSW 15 24 8 13 1010.9 1010.8 0.0
11/05:00pm 35.1 29.3 0.2 11 17.3 S 20 32 11 17 1011.0 1010.9 0.0
11/04:30pm 35.1 30.1 1.5 12 17.0 SSW 17 30 9 16 1010.9 1010.8 0.0
11/04:00pm 35.1 30.9 1.5 12 17.0 S 13 24 7 13 1011.1 1011.0 0.0
11/03:30pm 34.9 30.1 0.1 11 17.2 SE 15 24 8 13 1011.3 1011.2 0.0
11/03:00pm 35.3 31.5 1.6 12 17.1 E 11 17 6 9 1011.9 1011.8 0.0
11/02:30pm 33.9 29.9 2.7 14 16.0 SSE 13 22 7 12 1012.1 1012.0 0.0
11/02:00pm 33.7 29.4 3.5 15 15.7 S 15 26 8 14 1012.5 1012.4 0.0
11/01:30pm 32.6 28.3 5.2 18 14.5 SSE 17 24 9 13 1012.8 1012.7 0.0
11/01:00pm 31.8 28.1 4.6 18 14.2 SSE 13 20 7 11 1013.1 1013.0 0.0
11/12:30pm 30.9 27.5 6.0 21 13.3 SE 13 20 7 11 1013.4 1013.3 0.0
11/12:00pm 29.3 25.7 6.7 24 12.1 SSE 15 26 8 14 1013.8 1013.7 0.0
11/11:30am 28.1 23.9 7.4 27 11.1 SSE 19 28 10 15 1014.5 1014.4 0.0
11/11:00am 27.2 23.4 7.6 29 10.5 SSE 17 26 9 14 1015.0 1014.9 0.0
11/10:30am 25.6 22.1 8.6 34 9.2 SSE 17 26 9 14 1015.5 1015.3 0.0
11/10:00am 24.6 20.5 8.5 36 8.6 SE 20 24 11 13 1015.6 1015.4 0.0
11/09:30am 22.7 19.3 9.1 42 7.3 SSE 17 22 9 12 1015.3 1015.2 0.0
11/09:00am 21.3 17.4 9.5 47 6.3 SSE 20 28 11 15 1015.2 1015.1 0.0
11/08:30am 19.8 16.2 10.0 53 5.3 S 19 26 10 14 1015.2 1015.1 0.0
11/08:00am 18.7 15.6 10.3 58 4.5 S 17 24 9 13 1014.9 1014.8 0.0
11/07:30am 17.6 14.9 10.5 63 3.8 S 15 22 8 12 1014.5 1014.4 0.0
11/07:00am 16.9 14.2 10.3 65 3.5 SSW 15 22 8 12 1014.5 1014.4 0.0
11/06:30am 16.9 14.6 10.3 65 3.5 SSW 13 19 7 10 1014.1 1014.0 0.0
11/06:00am 17.4 14.6 10.1 62 3.9 SSW 15 20 8 11 1013.7 1013.6 0.0
11/05:30am 17.5 15.1 9.9 61 4.0 SSW 13 22 7 12 1013.2 1013.1 0.0
11/05:00am 18.0 15.2 9.9 59 4.3 SSW 15 20 8 11 1012.9 1012.8 0.0
11/04:30am 18.3 15.1 9.9 58 4.5 SSW 17 24 9 13 1012.7 1012.6 0.0
11/04:00am 18.6 15.8 9.9 57 4.6 SSW 15 20 8 11 1012.5 1012.4 0.0
11/03:30am 19.0 16.1 9.8 55 4.9 SSW 15 24 8 13 1012.4 1012.3 0.0
11/03:00am 19.5 16.6 9.7 53 5.2 SSW 15 20 8 11 1012.5 1012.4 0.0
11/02:30am 20.3 17.0 9.5 50 5.8 SSW 17 22 9 12 1012.5 1012.4 0.0
11/02:00am 20.7 17.3 9.3 48 6.1 SSW 17 22 9 12 1012.6 1012.5 0.0
11/01:30am 21.5 18.2 9.4 46 6.5 SSW 17 22 9 12 1012.7 1012.6 0.0
11/01:00am 22.3 18.4 9.5 44 6.9 SSW 20 28 11 15 1012.7 1012.6 0.0
11/12:30am 22.9 19.3 9.7 43 7.2 SSW 19 26 10 14 1012.7 1012.6 0.0
11/12:00am 23.5 20.0 10.2 43 7.3 SSW 19 26 10 14 1012.7 1012.6 0.0
 
Date/Time
CDT
Temp
°C
App
Temp
°C
Dew
Point
Rel
Hum
%
Delta-T
°C
Wind Press
QNH
hPa
Press
MSL
hPa
Rain
since 9 am
mm
Dir
 
Spd
km/h
Gust
km/h
Spd
kts
Gust
kts
10/11:30pm 24.3 20.1 9.8 40 7.9 SSW 22 30 12 16 1012.6 1012.5 0.0
10/11:00pm 25.6 20.9 9.4 36 8.9 SSW 24 35 13 19 1012.6 1012.5 0.0
10/10:30pm 26.9 22.5 8.8 32 9.9 SSW 22 32 12 17 1012.5 1012.4 0.0
10/10:00pm 28.2 23.0 7.4 27 11.2 SSW 24 35 13 19 1012.2 1012.1 0.0
10/09:30pm 29.4 24.4 -0.9 14 14.2 SSW 15 26 8 14 1012.1 1012.0 0.0
10/09:00pm 30.3 24.9 -1.2 13 14.8 SSW 17 24 9 13 1011.9 1011.8 0.0
10/08:30pm 31.2 25.7 0.6 14 14.9 SSW 19 26 10 14 1011.6 1011.5 0.0
10/08:00pm 32.4 27.6 2.5 15 15.1 SSW 17 22 9 12 1011.2 1011.1 0.0
10/07:30pm 33.6 28.9 3.4 15 15.7 SSW 17 24 9 13 1010.9 1010.8 0.0
10/07:00pm 34.2 29.1 2.9 14 16.1 SSW 19 26 10 14 1010.7 1010.6 0.0
10/06:30pm 35.8 30.9 2.0 12 17.4 SSW 17 24 9 13 1010.4 1010.3 0.0
10/06:00pm 35.5 31.3 1.8 12 17.2 S 13 22 7 12 1010.3 1010.2 0.0
10/05:30pm 35.6 30.7 1.8 12 17.3 SSW 17 28 9 15 1010.2 1010.1 0.0
10/05:00pm 36.3 32.0 1.2 11 17.8 SSW 13 26 7 14 1010.2 1010.1 0.0
10/04:30pm 35.6 31.0 1.8 12 17.3 S 15 24 8 13 1010.4 1010.3 0.0
10/04:00pm 35.9 31.4 2.1 12 17.4 S 15 28 8 15 1010.5 1010.4 0.0
10/03:30pm 35.4 31.0 2.8 13 16.9 SSW 15 26 8 14 1010.8 1010.7 0.0
10/03:00pm 34.9 30.1 2.4 13 16.7 S 17 28 9 15 1011.4 1011.3 0.0
10/02:30pm 35.3 30.9 2.7 13 16.9 SSE 15 30 8 16 1011.6 1011.5 0.0
10/02:00pm 34.3 30.0 3.0 14 16.2 SW 15 22 8 12 1012.1 1012.0 0.0
10/01:30pm 34.0 30.0 2.8 14 16.0 S 13 26 7 14 1012.4 1012.3 0.0
10/01:00pm 33.2 28.7 2.1 14 15.7 S 15 24 8 13 1012.8 1012.7 0.0
10/12:30pm 32.1 27.4 3.1 16 14.8 S 17 26 9 14 1013.2 1013.1 0.0
10/12:00pm 31.7 27.4 5.3 19 14.0 S 17 24 9 13 1013.5 1013.4 0.0
10/11:30am 29.5 26.4 7.4 25 11.9 SSW 13 20 7 11 1013.9 1013.8 0.0
10/11:00am 27.4 25.3 8.3 30 10.4 SSE 9 13 5 7 1014.2 1014.1 0.0
10/10:30am 26.1 23.4 9.0 34 9.3 SSW 13 19 7 10 1014.5 1014.4 0.0
10/10:00am 25.3 23.8 9.2 36 8.8 S 7 15 4 8 1014.5 1014.4 0.0
10/09:30am 23.8 21.8 8.6 38 8.1 SSE 9 11 5 6 1014.7 1014.6 0.0
10/09:00am 22.6 20.0 9.4 43 7.1 SSW 13 19 7 10 1014.5 1014.4 0.0
10/08:30am 20.7 18.7 8.7 46 6.3 SSW 9 13 5 7 1014.4 1014.3 0.0
10/08:00am 19.6 16.7 8.3 48 5.9 SSW 13 17 7 9 1014.5 1014.4 0.0
10/07:30am 18.1 16.3 7.8 51 5.2 WSW 7 9 4 5 1014.3 1014.2 0.0
10/07:00am 16.8 14.4 7.2 53 4.8 WSW 9 11 5 6 1014.2 1014.1 0.0
10/06:30am 17.4 14.7 7.5 52 5.0 SW 11 15 6 8 1014.0 1013.9 0.0
10/06:00am 17.8 15.1 7.5 51 5.2 SW 11 15 6 8 1013.8 1013.7 0.0
10/05:30am 18.2 15.2 7.9 51 5.3 SSW 13 19 7 10 1013.4 1013.3 0.0
10/05:00am 18.6 15.7 8.3 51 5.3 SSW 13 17 7 9 1012.9 1012.8 0.0
10/04:30am 18.5 16.1 8.5 52 5.2 SW 11 13 6 7 1012.9 1012.8 0.0
10/04:00am 19.1 16.6 8.4 50 5.5 WSW 11 13 6 7 1013.0 1012.9 0.0
10/03:30am 20.0 18.3 8.4 47 6.0 SW 7 9 4 5 1013.0 1012.9 0.0
10/03:00am 21.0 19.5 8.6 45 6.5 SSW 6 11 3 6 1013.0 1012.9 0.0
10/02:30am 21.8 19.9 9.0 44 6.8 SSW 9 15 5 8 1013.0 1012.9 0.0
10/02:00am 22.5 19.7 8.6 41 7.4 S 13 19 7 10 1013.2 1013.1 0.0
10/01:30am 23.1 19.9 8.4 39 7.8 S 15 20 8 11 1013.6 1013.5 0.0
10/01:00am 23.7 19.8 6.9 34 8.7 S 17 22 9 12 1013.8 1013.7 0.0
10/12:30am 24.3 20.2 4.6 28 9.8 S 15 24 8 13 1014.1 1014.0 0.0
10/12:00am 25.3 20.6 3.3 24 10.8 S 17 20 9 11 1014.2 1014.1 0.0
 
Date/Time
CDT
Temp
°C
App
Temp
°C
Dew
Point
Rel
Hum
%
Delta-T
°C
Wind Press
QNH
hPa
Press
MSL
hPa
Rain
since 9 am
mm
Dir
 
Spd
km/h
Gust
km/h
Spd
kts
Gust
kts
09/11:30pm 26.4 20.9 0.9 19 12.1 S 19 24 10 13 1014.3 1014.2 0.0
09/11:00pm 27.4 21.8 0.2 17 12.8 S 19 28 10 15 1014.3 1014.2 0.0
09/10:30pm 28.2 23.5 0.9 17 13.1 S 15 24 8 13 1014.3 1014.2 0.0
09/10:00pm 28.1 24.0 2.3 19 12.7 S 13 15 7 8 1014.4 1014.3 0.0
09/09:30pm 28.9 24.9 3.0 19 12.9 S 13 17 7 9 1014.1 1014.0 0.0
09/09:00pm 30.2 26.3 3.3 18 13.6 S 13 17 7 9 1013.9 1013.8 0.0
09/08:30pm 31.1 27.5 3.2 17 14.2 SSE 11 13 6 7 1013.8 1013.7 0.0
09/08:00pm 33.1 29.1 3.0 15 15.4 SSE 13 19 7 10 1013.8 1013.7 0.0
09/07:30pm 34.6 30.1 2.2 13 16.6 SSE 15 20 8 11 1013.7 1013.6 0.0
09/07:00pm 35.4 30.8 1.7 12 17.2 SSE 15 24 8 13 1013.5 1013.4 0.0
09/06:30pm 36.0 31.5 2.1 12 17.4 SSW 15 22 8 12 1013.4 1013.3 0.0

Other Formats:

Comma delimited format used in spreadsheet applications
http://www.bom.gov.au/fwo/IDS60801/IDS60801.95687.axf

JavaScript Object Notation format (JSON) in row-major order
http://www.bom.gov.au/fwo/IDS60801/IDS60801.95687.json